< < Back
Terminal Aerodrome Forecast


Current Version              Previous Versions:   1  2  3  4  5  6  7  8  9  

Terminal Aerodrome Forecast

600
FTUS42 KGSP 272010 AAC
TAFGSP
TAF AMD
KGSP 272010Z 2720/2818 35010G18KT P6SM FEW140
     FM280200 36004KT P6SM SKC=

Latest METAR

774
SAUS70 KWBC 280900 RRI
MTRGSP
METAR KGSP 280853Z AUTO 34004KT 10SM CLR M01/M09 A3007 RMK AO2 SLP186
T10061094 51013


USA.gov is the U.S. government's official web portal to all federal, state and local government web resources and services.